Time;durP1;ratioP1;P1;durP2;ratioP2;P2;SDS_P1;SDS_P2;PMS_P1;PMS_P2;Temp;Humidity;BMP_temperature;BMP_pressure;BME280_temperature;BME280_humidity;BME280_pressure;Samples;Min_cycle;Max_cycle;Signal;HPM_P1;HPM_P2
2023/07/03 00:01:52;;;;;;;0.20;0.20;;;12.70;56.50;;;;;;5054819;28;20211;-52
2023/07/03 00:04:25;;;;;;;0.17;0.17;;;12.70;56.50;;;;;;5052175;28;20562;-55
2023/07/03 00:06:56;;;;;;;0.20;0.20;;;12.70;56.60;;;;;;5050095;28;20225;-58
2023/07/03 00:09:27;;;;;;;0.10;0.10;;;12.70;56.60;;;;;;5050941;28;20195;-52
2023/07/03 00:11:57;;;;;;;0.13;0.13;;;12.80;56.70;;;;;;5051315;28;20683;-57
2023/07/03 00:14:28;;;;;;;0.10;0.10;;;12.80;56.70;;;;;;5050271;28;20622;-60
2023/07/03 00:16:59;;;;;;;0.10;0.10;;;12.80;56.90;;;;;;5050833;28;20199;-60
2023/07/03 00:19:32;;;;;;;0.13;0.13;;;12.80;56.80;;;;;;5050157;28;20203;-56
2023/07/03 00:22:03;;;;;;;0.10;0.10;;;12.80;56.70;;;;;;5050676;28;20211;-57
2023/07/03 00:24:34;;;;;;;0.20;0.20;;;12.80;56.70;;;;;;5050879;28;20203;-57
2023/07/03 00:27:05;;;;;;;0.10;0.10;;;12.80;56.70;;;;;;5050953;28;20567;-54
2023/07/03 00:29:36;;;;;;;0.10;0.10;;;12.80;56.70;;;;;;5051134;28;20593;-57
2023/07/03 00:32:07;;;;;;;0.10;0.10;;;12.80;56.70;;;;;;5050338;28;20222;-59
2023/07/03 00:34:40;;;;;;;0.10;0.10;;;12.90;56.60;;;;;;5050585;28;20310;-59
2023/07/03 00:37:11;;;;;;;0.20;0.20;;;12.90;56.60;;;;;;5049946;28;20187;-58
2023/07/03 00:39:41;;;;;;;0.10;0.10;;;12.90;56.60;;;;;;5055046;28;20278;-52
2023/07/03 00:42:12;;;;;;;0.10;0.10;;;12.90;56.60;;;;;;5053481;28;20698;-59
2023/07/03 00:44:46;;;;;;;0.13;0.13;;;12.90;56.60;;;;;;5054547;28;20192;-59
2023/07/03 00:47:16;;;;;;;0.10;0.10;;;12.90;56.50;;;;;;5054439;28;20210;-54
2023/07/03 00:49:49;;;;;;;0.10;0.10;;;12.90;56.50;;;;;;5054478;28;20674;-56
2023/07/03 00:52:20;;;;;;;0.10;0.10;;;12.90;56.50;;;;;;5054695;28;20211;-57
2023/07/03 00:54:53;;;;;;;0.10;0.10;;;12.90;56.50;;;;;;5054049;28;20699;-55
2023/07/03 00:57:25;;;;;;;0.20;0.20;;;13.00;56.60;;;;;;5053664;28;20180;-57
2023/07/03 00:59:55;;;;;;;0.10;0.10;;;13.00;56.50;;;;;;5054178;28;20282;-56
2023/07/03 01:02:30;;;;;;;0.20;0.20;;;13.00;56.50;;;;;;5053502;28;20207;-55
2023/07/03 01:05:07;;;;;;;0.17;0.17;;;13.00;56.60;;;;;;5053717;28;20187;-57
2023/07/03 01:07:40;;;;;;;0.10;0.10;;;13.00;56.60;;;;;;5053743;28;20206;-53
2023/07/03 01:10:15;;;;;;;0.20;0.20;;;13.00;56.70;;;;;;5053624;28;20274;-53
2023/07/03 01:12:48;;;;;;;0.10;0.10;;;13.00;56.70;;;;;;5053836;28;20214;-59
2023/07/03 01:15:21;;;;;;;0.10;0.10;;;13.10;56.60;;;;;;5054268;28;20277;-55
2023/07/03 01:17:54;;;;;;;0.10;0.10;;;13.10;56.70;;;;;;5053917;28;20198;-57
2023/07/03 01:20:32;;;;;;;0.10;0.10;;;13.10;56.60;;;;;;5054942;28;20192;-57
2023/07/03 01:23:07;;;;;;;0.20;0.20;;;13.10;56.60;;;;;;5053547;28;20276;-57
2023/07/03 01:25:42;;;;;;;0.10;0.10;;;13.10;56.60;;;;;;5061642;28;20198;-56
2023/07/03 01:28:15;;;;;;;0.10;0.10;;;13.10;56.60;;;;;;5053584;28;20664;-55
2023/07/03 01:30:47;;;;;;;0.10;0.10;;;13.20;56.70;;;;;;5054047;28;20199;-57
2023/07/03 01:33:25;;;;;;;0.10;0.10;;;13.20;56.70;;;;;;5053301;28;20686;-58
2023/07/03 01:35:56;;;;;;;0.10;0.10;;;13.20;56.70;;;;;;5054317;28;20310;-58
2023/07/03 01:38:28;;;;;;;0.10;0.10;;;13.20;56.70;;;;;;5053844;28;20199;-54
2023/07/03 01:41:02;;;;;;;0.10;0.10;;;13.20;56.70;;;;;;5052880;28;20608;-56
2023/07/03 01:43:33;;;;;;;0.10;0.10;;;13.20;56.70;;;;;;5052969;28;20662;-56
2023/07/03 01:46:03;;;;;;;0.10;0.10;;;13.30;57.30;;;;;;5052963;28;20204;-59
2023/07/03 01:48:36;;;;;;;0.10;0.10;;;13.30;56.70;;;;;;5053695;28;20191;-56
2023/07/03 01:51:10;;;;;;;0.20;0.20;;;13.20;56.70;;;;;;5051883;28;20187;-59
2023/07/03 01:53:46;;;;;;;0.10;0.10;;;13.30;56.70;;;;;;5052871;28;20839;-59
2023/07/03 01:56:24;;;;;;;0.10;0.10;;;13.30;56.80;;;;;;5052698;28;20249;-59
2023/07/03 01:59:00;;;;;;;0.10;0.10;;;13.30;56.80;;;;;;5053022;28;20707;-56
2023/07/03 02:01:38;;;;;;;0.10;0.10;;;13.30;56.80;;;;;;5053195;28;20199;-55
2023/07/03 02:04:15;;;;;;;0.10;0.10;;;13.30;56.80;;;;;;5053158;28;20202;-58
2023/07/03 02:06:48;;;;;;;0.10;0.10;;;13.30;56.80;;;;;;5052288;28;20203;-54
2023/07/03 02:09:19;;;;;;;0.10;0.10;;;13.40;56.90;;;;;;5032872;28;20512;-57
2023/07/03 02:11:53;;;;;;;0.20;0.20;;;13.40;56.90;;;;;;5044436;28;20222;-57
2023/07/03 02:14:24;;;;;;;0.10;0.10;;;13.40;56.90;;;;;;5050552;28;20741;-56
2023/07/03 02:16:55;;;;;;;0.20;0.20;;;13.40;56.90;;;;;;5052495;28;20643;-57
2023/07/03 02:19:28;;;;;;;0.10;0.10;;;13.50;56.90;;;;;;5052013;28;20218;-56
2023/07/03 02:21:59;;;;;;;0.00;0.00;;;13.50;56.90;;;;;;5052995;28;20219;-58
2023/07/03 02:24:30;;;;;;;0.10;0.10;;;13.50;56.80;;;;;;5052369;28;20218;-57
2023/07/03 02:27:02;;;;;;;0.10;0.10;;;13.50;56.80;;;;;;5051676;28;20196;-54
2023/07/03 02:29:33;;;;;;;0.10;0.10;;;13.50;56.80;;;;;;5052295;28;20199;-59
2023/07/03 02:32:03;;;;;;;0.10;0.10;;;13.60;56.80;;;;;;5053395;28;20645;-56
2023/07/03 02:34:34;;;;;;;0.10;0.10;;;13.60;56.80;;;;;;5052956;28;20571;-54
2023/07/03 02:37:05;;;;;;;0.10;0.10;;;13.60;56.80;;;;;;5053433;28;20191;-55
2023/07/03 02:39:35;;;;;;;0.10;0.10;;;13.60;56.80;;;;;;5053342;28;20199;-60
2023/07/03 02:42:08;;;;;;;0.10;0.10;;;13.60;56.80;;;;;;5052913;28;20702;-52
2023/07/03 02:44:39;;;;;;;0.10;0.10;;;13.60;56.80;;;;;;5033185;28;20204;-54
2023/07/03 02:47:10;;;;;;;0.10;0.10;;;13.60;56.80;;;;;;5033297;28;20586;-54
2023/07/03 02:49:40;;;;;;;0.10;0.10;;;13.70;56.80;;;;;;5032522;28;20254;-59
2023/07/03 02:52:11;;;;;;;0.10;0.10;;;13.70;56.80;;;;;;5032622;28;20216;-55
2023/07/03 02:54:42;;;;;;;0.10;0.10;;;13.70;56.90;;;;;;5032786;28;20220;-57
2023/07/03 02:57:14;;;;;;;0.13;0.13;;;13.70;56.90;;;;;;5032815;28;20200;-55
2023/07/03 02:59:45;;;;;;;0.10;0.10;;;13.70;56.90;;;;;;5033310;28;20196;-58
2023/07/03 03:02:15;;;;;;;0.10;0.10;;;13.70;56.90;;;;;;5051225;28;20292;-53
2023/07/03 03:04:47;;;;;;;0.10;0.10;;;13.80;56.90;;;;;;5051984;28;20201;-59
2023/07/03 03:07:18;;;;;;;0.10;0.10;;;13.80;56.90;;;;;;5052142;28;20258;-56
2023/07/03 03:09:49;;;;;;;0.10;0.10;;;13.80;56.90;;;;;;5052068;28;20191;-59
2023/07/03 03:12:21;;;;;;;0.10;0.10;;;13.80;57.00;;;;;;5052033;28;20211;-54
2023/07/03 03:14:52;;;;;;;0.00;0.00;;;13.90;57.00;;;;;;5051717;28;20242;-57
2023/07/03 03:17:23;;;;;;;0.10;0.10;;;13.90;57.00;;;;;;5051811;28;20208;-53
2023/07/03 03:19:53;;;;;;;0.10;0.10;;;13.90;57.00;;;;;;5051557;28;20214;-54
2023/07/03 03:22:35;;;;;;;0.10;0.10;;;14.00;57.10;;;;;;5108984;27;20738;-58
2023/07/03 03:25:06;;;;;;;0.10;0.10;;;14.00;57.10;;;;;;5109179;28;20197;-56
2023/07/03 03:27:36;;;;;;;0.10;0.10;;;14.00;57.10;;;;;;5108919;28;20197;-61
2023/07/03 03:30:08;;;;;;;0.10;0.10;;;14.00;57.00;;;;;;5109856;28;20200;-58
2023/07/03 03:32:38;;;;;;;0.10;0.10;;;14.00;57.00;;;;;;5109375;28;20217;-61
2023/07/03 03:35:10;;;;;;;0.10;0.10;;;14.10;57.00;;;;;;5093374;28;20202;-59
2023/07/03 03:37:43;;;;;;;0.10;0.10;;;14.10;57.00;;;;;;5088225;28;20255;-57
2023/07/03 03:40:14;;;;;;;0.10;0.10;;;14.10;57.00;;;;;;5088753;28;20205;-59
2023/07/03 03:42:44;;;;;;;0.10;0.10;;;14.20;57.00;;;;;;5088664;28;21070;-58
2023/07/03 03:45:15;;;;;;;0.10;0.10;;;14.20;57.00;;;;;;5107191;28;20564;-61
2023/07/03 03:47:46;;;;;;;0.10;0.10;;;14.20;56.90;;;;;;5108319;28;20563;-54
2023/07/03 03:50:16;;;;;;;0.10;0.10;;;14.30;56.90;;;;;;5089671;28;20203;-56
2023/07/03 03:52:49;;;;;;;0.10;0.10;;;14.30;56.80;;;;;;5095009;28;20240;-56
2023/07/03 03:55:19;;;;;;;0.10;0.10;;;14.30;56.80;;;;;;5097637;28;20191;-57
2023/07/03 03:57:50;;;;;;;0.17;0.17;;;14.40;56.90;;;;;;5095996;28;20189;-57
2023/07/03 04:00:21;;;;;;;0.10;0.10;;;14.40;56.90;;;;;;5105354;28;20194;-57
2023/07/03 04:02:52;;;;;;;0.10;0.10;;;14.40;56.90;;;;;;5103933;28;20639;-60
2023/07/03 04:05:23;;;;;;;0.10;0.10;;;14.40;56.80;;;;;;5128845;27;20552;-57
2023/07/03 04:07:55;;;;;;;0.10;0.10;;;14.50;56.80;;;;;;5128593;27;20824;-53
2023/07/03 04:10:26;;;;;;;0.10;0.10;;;14.50;56.70;;;;;;5127933;27;20645;-54
2023/07/03 04:12:56;;;;;;;0.10;0.10;;;14.50;56.70;;;;;;5114772;27;20214;-52
2023/07/03 04:15:27;;;;;;;0.00;0.00;;;14.50;56.70;;;;;;5087101;28;20535;-56
2023/07/03 04:17:58;;;;;;;0.10;0.10;;;14.60;56.70;;;;;;5095229;28;20185;-57
2023/07/03 04:20:28;;;;;;;0.10;0.10;;;14.60;56.60;;;;;;5107566;28;20205;-58
2023/07/03 04:23:01;;;;;;;0.10;0.10;;;14.60;56.50;;;;;;5108048;28;20209;-60
2023/07/03 04:25:31;;;;;;;0.10;0.10;;;14.70;56.50;;;;;;5107341;28;20198;-58
2023/07/03 04:28:02;;;;;;;0.10;0.10;;;14.70;56.50;;;;;;5107327;28;20189;-57
2023/07/03 04:31:14;;;;;;;0.10;0.10;;;14.70;56.50;;;;;;5107330;28;20189;-59
2023/07/03 04:33:45;;;;;;;0.10;0.10;;;14.80;56.50;;;;;;5093651;28;20201;-61
2023/07/03 04:36:17;;;;;;;0.10;0.10;;;14.80;56.40;;;;;;5094362;28;20199;-61
2023/07/03 04:38:49;;;;;;;0.10;0.10;;;14.80;56.40;;;;;;5102979;28;20657;-56
2023/07/03 04:41:22;;;;;;;0.10;0.10;;;14.80;56.40;;;;;;5114646;28;20221;-55
2023/07/03 04:43:57;;;;;;;0.10;0.10;;;14.80;56.30;;;;;;5099082;28;20194;-60
2023/07/03 04:46:28;;;;;;;0.10;0.10;;;14.90;56.30;;;;;;5094119;28;20198;-57
2023/07/03 04:49:03;;;;;;;0.00;0.00;;;14.80;56.90;;;;;;5094185;28;20194;-59
2023/07/03 04:51:33;;;;;;;0.10;0.10;;;14.90;56.30;;;;;;5093085;28;20728;-51
2023/07/03 04:54:06;;;;;;;0.10;0.10;;;14.90;56.10;;;;;;5093401;28;20205;-61
2023/07/03 04:56:37;;;;;;;0.10;0.10;;;14.90;56.10;;;;;;5092991;28;20194;-58
2023/07/03 04:59:08;;;;;;;0.10;0.10;;;14.90;56.10;;;;;;5108911;28;20193;-58
2023/07/03 05:01:42;;;;;;;0.10;0.10;;;14.80;56.10;;;;;;5113227;28;20225;-58
2023/07/03 05:04:13;;;;;;;0.10;0.10;;;14.90;56.10;;;;;;5092269;28;20650;-56
2023/07/03 05:06:43;;;;;;;0.10;0.10;;;14.80;56.10;;;;;;5086660;28;20198;-55
2023/07/03 05:09:16;;;;;;;0.10;0.10;;;14.90;56.10;;;;;;5082560;28;20195;-54
2023/07/03 05:11:48;;;;;;;0.10;0.10;;;14.80;56.10;;;;;;5072602;28;20214;-53
2023/07/03 05:14:19;;;;;;;0.10;0.10;;;14.80;56.00;;;;;;5088396;28;20194;-58
2023/07/03 05:16:50;;;;;;;0.10;0.10;;;14.80;56.00;;;;;;5092831;28;20209;-57
2023/07/03 05:19:20;;;;;;;0.10;0.10;;;14.80;56.00;;;;;;5092224;28;20206;-58
2023/07/03 05:21:51;;;;;;;0.10;0.10;;;14.90;56.10;;;;;;5092884;28;20225;-59
2023/07/03 05:24:24;;;;;;;0.05;0.05;;;14.80;56.00;;;;;;5093199;28;20190;-61
2023/07/03 05:26:54;;;;;;;0.08;0.08;;;14.80;56.00;;;;;;5074056;28;20692;-57
2023/07/03 05:29:25;;;;;;;0.10;0.10;;;14.80;56.10;;;;;;5080894;28;20202;-54
2023/07/03 05:31:56;;;;;;;0.10;0.10;;;14.80;56.00;;;;;;5073009;28;20244;-59
2023/07/03 05:34:27;;;;;;;0.10;0.10;;;14.80;56.00;;;;;;5088243;28;20236;-57
2023/07/03 05:36:58;;;;;;;0.10;0.10;;;14.80;56.00;;;;;;5089968;28;20205;-56
2023/07/03 05:39:31;;;;;;;0.10;0.10;;;14.80;56.00;;;;;;5104110;28;20633;-58
2023/07/03 05:42:01;;;;;;;0.10;0.10;;;14.80;56.00;;;;;;5112381;28;20582;-59
2023/07/03 05:44:32;;;;;;;0.10;0.10;;;14.80;56.00;;;;;;5088586;28;20194;-55
2023/07/03 05:47:02;;;;;;;0.10;0.10;;;14.80;56.00;;;;;;5092792;28;20186;-57
2023/07/03 05:49:33;;;;;;;0.10;0.10;;;14.80;55.90;;;;;;5092875;28;20190;-55
2023/07/03 05:52:04;;;;;;;0.10;0.10;;;14.80;56.00;;;;;;5092066;28;20218;-57
2023/07/03 05:54:36;;;;;;;0.10;0.10;;;14.80;56.10;;;;;;5091586;28;20199;-59
2023/07/03 05:57:09;;;;;;;0.10;0.10;;;14.80;56.30;;;;;;5092215;28;20209;-61
2023/07/03 05:59:41;;;;;;;0.10;0.10;;;14.80;56.30;;;;;;5098210;28;20186;-57
2023/07/03 06:02:14;;;;;;;0.10;0.10;;;14.80;56.20;;;;;;5092555;28;20245;-57
2023/07/03 06:04:45;;;;;;;0.10;0.10;;;14.80;56.50;;;;;;5092228;28;20588;-58
2023/07/03 06:07:16;;;;;;;0.10;0.10;;;14.80;56.10;;;;;;5093106;28;20280;-56
2023/07/03 06:09:49;;;;;;;0.10;0.10;;;14.80;56.10;;;;;;5108974;28;20189;-55
2023/07/03 06:12:20;;;;;;;0.10;0.10;;;14.80;56.10;;;;;;5097716;28;20300;-54
2023/07/03 06:14:50;;;;;;;0.10;0.10;;;14.80;56.00;;;;;;5080131;28;20190;-55
2023/07/03 06:17:21;;;;;;;0.10;0.10;;;14.80;56.00;;;;;;5082291;28;20194;-53
2023/07/03 06:19:51;;;;;;;0.10;0.10;;;14.80;56.00;;;;;;5074518;28;20198;-58
2023/07/03 06:22:22;;;;;;;0.10;0.10;;;14.80;56.00;;;;;;5071354;28;20239;-60
2023/07/03 06:24:55;;;;;;;0.00;0.00;;;14.80;55.90;;;;;;5087683;28;20201;-54
2023/07/03 06:27:25;;;;;;;0.00;0.00;;;14.80;55.80;;;;;;5091394;28;20239;-58
2023/07/03 06:29:56;;;;;;;0.10;0.10;;;14.80;55.90;;;;;;5091982;28;20197;-57
2023/07/03 06:32:26;;;;;;;0.10;0.10;;;14.70;55.80;;;;;;5090951;28;20213;-58
2023/07/03 06:34:57;;;;;;;0.10;0.10;;;14.80;55.80;;;;;;5108692;28;20197;-54
2023/07/03 06:37:28;;;;;;;0.10;0.10;;;14.70;55.80;;;;;;5098358;28;20217;-49
2023/07/03 06:40:00;;;;;;;0.10;0.10;;;14.70;55.80;;;;;;5079896;28;20194;-52
2023/07/03 06:42:31;;;;;;;0.10;0.10;;;14.70;55.80;;;;;;5080260;28;20262;-50
2023/07/03 06:45:02;;;;;;;0.10;0.10;;;14.70;55.80;;;;;;5080042;28;20681;-49
2023/07/03 06:47:32;;;;;;;0.10;0.10;;;14.70;55.80;;;;;;5079738;28;20561;-54
2023/07/03 06:50:03;;;;;;;0.10;0.10;;;14.60;55.80;;;;;;5078230;28;20552;-53
2023/07/03 06:52:37;;;;;;;0.10;0.10;;;14.70;55.80;;;;;;5080888;28;20231;-53
2023/07/03 06:55:10;;;;;;;0.10;0.10;;;14.60;55.80;;;;;;5078388;28;20193;-49
2023/07/03 06:57:41;;;;;;;0.10;0.10;;;14.60;55.80;;;;;;5080998;28;20656;-54
2023/07/03 07:00:12;;;;;;;0.05;0.05;;;14.60;55.70;;;;;;5075773;28;20187;-49
2023/07/03 07:02:43;;;;;;;0.08;0.08;;;14.60;55.70;;;;;;5071390;28;20249;-53
2023/07/03 07:05:14;;;;;;;0.15;0.15;;;14.60;56.20;;;;;;5087807;28;20190;-48
2023/07/03 07:07:45;;;;;;;0.10;0.10;;;14.60;55.60;;;;;;5092138;28;20190;-49
2023/07/03 07:10:17;;;;;;;0.10;0.10;;;14.60;55.60;;;;;;5084864;28;20235;-50
2023/07/03 07:12:48;;;;;;;0.00;0.00;;;14.60;55.60;;;;;;5085428;28;20724;-51
2023/07/03 07:15:18;;;;;;;0.10;0.10;;;14.60;55.60;;;;;;5087773;28;20673;-49
2023/07/03 07:17:53;;;;;;;0.10;0.10;;;14.60;55.60;;;;;;5091641;28;20661;-50
2023/07/03 07:20:23;;;;;;;0.10;0.10;;;14.60;55.60;;;;;;5091229;28;20228;-53
2023/07/03 07:22:54;;;;;;;0.10;0.10;;;14.50;55.60;;;;;;5090627;28;20696;-52
2023/07/03 07:25:27;;;;;;;0.10;0.10;;;14.50;55.60;;;;;;5091316;28;20247;-53
2023/07/03 07:27:57;;;;;;;0.10;0.10;;;14.50;55.70;;;;;;5090855;28;20194;-50
2023/07/03 07:30:28;;;;;;;0.20;0.20;;;14.50;55.60;;;;;;5091204;28;20541;-51
2023/07/03 07:32:58;;;;;;;0.10;0.10;;;14.50;55.60;;;;;;5088406;28;20210;-50
2023/07/03 07:35:29;;;;;;;0.10;0.10;;;14.50;55.60;;;;;;5077187;28;20562;-49
2023/07/03 07:38:00;;;;;;;0.10;0.10;;;14.50;55.60;;;;;;5078968;28;20195;-54
2023/07/03 07:40:32;;;;;;;0.10;0.10;;;14.40;55.60;;;;;;5079897;28;20195;-49
2023/07/03 07:43:03;;;;;;;0.15;0.15;;;14.50;55.60;;;;;;5079901;28;20226;-52
2023/07/03 07:45:34;;;;;;;0.10;0.10;;;14.50;55.60;;;;;;5080045;28;20202;-54
2023/07/03 07:48:05;;;;;;;0.10;0.10;;;14.50;55.60;;;;;;5080435;28;20186;-55
2023/07/03 07:50:38;;;;;;;0.10;0.10;;;14.40;55.50;;;;;;5079675;28;20201;-53
2023/07/03 07:53:08;;;;;;;0.10;0.10;;;14.40;55.50;;;;;;5079849;28;20217;-54
2023/07/03 07:55:42;;;;;;;0.10;0.10;;;14.40;55.50;;;;;;5071142;28;20201;-55
2023/07/03 07:58:12;;;;;;;0.10;0.10;;;14.40;55.50;;;;;;5070989;28;20194;-49
2023/07/03 08:00:43;;;;;;;0.10;0.10;;;14.40;55.50;;;;;;5070787;28;20203;-55
2023/07/03 08:03:14;;;;;;;0.10;0.10;;;14.40;55.60;;;;;;5070514;28;20238;-60
2023/07/03 08:05:45;;;;;;;0.10;0.10;;;14.40;55.60;;;;;;5070398;28;20221;-53
2023/07/03 08:08:15;;;;;;;0.10;0.10;;;14.40;55.60;;;;;;5075635;28;20290;-54
2023/07/03 08:10:55;;;;;;;0.10;0.10;;;14.40;55.60;;;;;;5094930;28;20197;-59
2023/07/03 08:13:26;;;;;;;0.10;0.10;;;14.40;55.70;;;;;;5083835;28;20260;-55
2023/07/03 08:15:57;;;;;;;0.15;0.15;;;14.30;55.60;;;;;;5073016;28;20561;-50
2023/07/03 08:18:28;;;;;;;0.10;0.10;;;14.30;55.60;;;;;;5074177;28;20198;-48
2023/07/03 08:20:59;;;;;;;0.10;0.10;;;14.30;55.60;;;;;;5073679;28;20206;-52
2023/07/03 08:23:30;;;;;;;0.10;0.10;;;14.30;55.50;;;;;;5074871;28;20230;-49
2023/07/03 08:26:03;;;;;;;0.10;0.10;;;14.30;55.50;;;;;;5074350;28;20277;-49
2023/07/03 08:28:33;;;;;;;0.08;0.08;;;14.30;55.50;;;;;;5074321;28;20202;-48
2023/07/03 08:31:04;;;;;;;0.10;0.10;;;14.30;55.50;;;;;;5077241;28;20190;-53
2023/07/03 08:33:35;;;;;;;0.10;0.10;;;14.30;55.50;;;;;;5094495;28;20213;-49
2023/07/03 08:36:06;;;;;;;0.10;0.10;;;14.20;55.40;;;;;;5093896;28;20241;-52
2023/07/03 08:38:36;;;;;;;0.10;0.10;;;14.30;55.50;;;;;;5093999;28;20237;-54
2023/07/03 08:41:12;;;;;;;0.10;0.10;;;14.30;56.10;;;;;;5094395;28;20198;-54
2023/07/03 08:43:45;;;;;;;0.10;0.10;;;14.30;55.50;;;;;;5081162;28;20767;-55
2023/07/03 08:46:21;;;;;;;0.10;0.10;;;14.20;55.40;;;;;;5073931;28;20631;-57
2023/07/03 08:48:53;;;;;;;0.10;0.10;;;14.20;55.50;;;;;;5082658;28;20308;-60
2023/07/03 08:51:27;;;;;;;0.10;0.10;;;14.20;55.50;;;;;;5091633;28;20194;-50
2023/07/03 08:54:05;;;;;;;0.10;0.10;;;14.20;55.60;;;;;;5094385;28;20193;-53
2023/07/03 08:56:38;;;;;;;0.10;0.10;;;14.20;55.60;;;;;;5094525;28;20614;-54
2023/07/03 08:59:09;;;;;;;0.13;0.13;;;14.20;55.60;;;;;;5094006;28;20255;-56
2023/07/03 09:01:49;;;;;;;0.10;0.10;;;14.20;55.60;;;;;;5093622;28;20214;-61
2023/07/03 09:04:32;;;;;;;0.10;0.10;;;14.10;55.50;;;;;;5092965;28;20205;-56
2023/07/03 09:07:07;;;;;;;0.10;0.10;;;14.20;55.50;;;;;;5094071;28;20243;-59
2023/07/03 09:09:45;;;;;;;0.10;0.10;;;14.10;55.40;;;;;;5093698;28;20198;-60
2023/07/03 09:12:22;;;;;;;0.10;0.10;;;14.20;55.50;;;;;;5091831;28;20213;-51
2023/07/03 09:14:59;;;;;;;0.10;0.10;;;14.20;55.50;;;;;;5091961;28;20190;-49
2023/07/03 09:17:30;;;;;;;0.20;0.20;;;14.10;55.20;;;;;;5093563;28;20692;-48
2023/07/03 09:20:02;;;;;;;0.10;0.10;;;14.10;54.40;;;;;;5092500;28;20198;-49
2023/07/03 09:22:39;;;;;;;0.10;0.10;;;14.10;54.20;;;;;;5093176;28;20692;-57
2023/07/03 09:25:18;;;;;;;0.10;0.10;;;14.00;54.20;;;;;;5092129;28;20198;-62
2023/07/03 09:27:52;;;;;;;0.10;0.10;;;14.00;54.20;;;;;;5083237;28;20273;-53
2023/07/03 09:30:22;;;;;;;0.10;0.10;;;14.00;54.20;;;;;;5072067;28;20203;-47
2023/07/03 09:32:53;;;;;;;0.10;0.10;;;14.00;54.30;;;;;;5078907;28;20217;-51
2023/07/03 09:35:25;;;;;;;0.10;0.10;;;13.90;54.40;;;;;;5071702;28;20627;-58
2023/07/03 09:38:04;;;;;;;0.10;0.10;;;13.90;54.50;;;;;;5083473;28;20186;-61
2023/07/03 09:40:39;;;;;;;0.10;0.10;;;13.90;54.50;;;;;;5092345;28;20277;-54
2023/07/03 09:43:17;;;;;;;0.10;0.10;;;13.90;54.50;;;;;;5090125;28;20337;-49
2023/07/03 09:45:48;;;;;;;0.10;0.10;;;13.90;54.60;;;;;;5092486;28;20189;-49
2023/07/03 09:48:25;;;;;;;0.10;0.10;;;13.90;54.60;;;;;;5092738;28;20197;-56
2023/07/03 09:50:56;;;;;;;0.10;0.10;;;13.90;54.50;;;;;;5092400;28;20193;-51
2023/07/03 09:53:30;;;;;;;0.13;0.13;;;13.90;54.50;;;;;;5089577;28;20289;-55
2023/07/03 09:56:02;;;;;;;0.10;0.10;;;13.90;54.60;;;;;;5081372;28;20182;-52
2023/07/03 09:58:36;;;;;;;0.10;0.10;;;13.90;54.60;;;;;;5083421;28;20273;-60
2023/07/03 10:01:07;;;;;;;0.10;0.10;;;13.90;54.60;;;;;;5092143;28;20198;-58
2023/07/03 10:03:39;;;;;;;0.10;0.10;;;13.90;54.60;;;;;;5089968;28;20357;-58
2023/07/03 10:06:17;;;;;;;0.10;0.10;;;13.90;54.70;;;;;;5071660;28;20207;-59
2023/07/03 10:08:52;;;;;;;0.10;0.10;;;13.90;54.80;;;;;;5086741;28;20201;-61
2023/07/03 10:11:28;;;;;;;0.10;0.10;;;13.80;54.70;;;;;;5091763;28;20200;-50
2023/07/03 10:14:00;;;;;;;0.15;0.15;;;13.90;54.80;;;;;;5076291;28;20202;-59
2023/07/03 10:16:33;;;;;;;0.10;0.10;;;13.90;54.80;;;;;;5071499;28;20195;-55
2023/07/03 10:19:04;;;;;;;0.10;0.10;;;13.90;54.80;;;;;;5089030;28;20194;-56
2023/07/03 10:21:35;;;;;;;0.10;0.10;;;13.80;54.80;;;;;;5091209;28;20226;-54
2023/07/03 10:24:07;;;;;;;0.10;0.10;;;13.80;54.90;;;;;;5089435;28;20739;-60
2023/07/03 10:26:44;;;;;;;0.10;0.10;;;13.80;54.90;;;;;;5091891;28;20607;-57
2023/07/03 10:29:24;;;;;;;0.10;0.10;;;13.80;54.90;;;;;;5092076;28;20267;-54
2023/07/03 10:31:58;;;;;;;0.08;0.08;;;13.80;54.90;;;;;;5091162;28;20297;-60
2023/07/03 10:34:37;;;;;;;0.10;0.10;;;13.80;54.90;;;;;;5092133;28;20255;-53
2023/07/03 10:37:10;;;;;;;0.10;0.10;;;13.90;54.90;;;;;;5091361;28;20203;-59
2023/07/03 10:39:45;;;;;;;0.10;0.10;;;13.80;54.80;;;;;;5075119;28;20202;-58
2023/07/03 10:42:22;;;;;;;0.10;0.10;;;13.80;54.90;;;;;;5072902;28;20252;-54
2023/07/03 10:45:00;;;;;;;0.10;0.10;;;13.90;54.90;;;;;;5112334;28;20197;-62
2023/07/03 10:47:37;;;;;;;0.10;0.10;;;13.90;54.90;;;;;;5111360;28;21786;-55
2023/07/03 10:50:08;;;;;;;0.10;0.10;;;13.80;54.90;;;;;;5111536;28;20193;-62
2023/07/03 10:52:44;;;;;;;0.10;0.10;;;13.80;54.90;;;;;;5112083;28;20201;-58
2023/07/03 10:55:21;;;;;;;0.10;0.10;;;13.80;55.00;;;;;;5111948;28;20200;-54
2023/07/03 10:57:58;;;;;;;0.10;0.10;;;13.80;55.00;;;;;;5111059;28;20264;-58
2023/07/03 11:00:36;;;;;;;0.17;0.17;;;13.80;55.00;;;;;;5110853;28;20189;-58
2023/07/03 11:03:16;;;;;;;0.10;0.10;;;13.80;55.10;;;;;;5077595;28;20279;-51
2023/07/03 11:05:53;;;;;;;0.10;0.10;;;13.80;55.10;;;;;;5090777;28;20206;-54
2023/07/03 11:08:29;;;;;;;0.10;0.10;;;13.80;55.10;;;;;;5090979;28;20208;-52
2023/07/03 11:11:10;;;;;;;0.10;0.10;;;13.80;55.10;;;;;;5091391;28;20558;-51
2023/07/03 11:13:49;;;;;;;0.10;0.10;;;13.80;55.10;;;;;;5089512;28;20197;-49
2023/07/03 11:16:23;;;;;;;0.13;0.13;;;13.80;55.10;;;;;;5090768;28;20229;-57
2023/07/03 11:19:05;;;;;;;0.10;0.10;;;13.80;55.10;;;;;;5090244;28;20194;-54
2023/07/03 11:21:48;;;;;;;0.10;0.10;;;13.80;55.10;;;;;;5087797;28;20223;-60
2023/07/03 11:24:22;;;;;;;0.10;0.10;;;13.80;55.10;;;;;;5079725;28;20265;-59
2023/07/03 11:26:57;;;;;;;0.10;0.10;;;13.80;55.10;;;;;;5079440;28;20707;-53
2023/07/03 11:29:29;;;;;;;0.13;0.13;;;13.80;55.10;;;;;;5080774;28;20202;-56
2023/07/03 11:32:03;;;;;;;0.10;0.10;;;13.80;55.10;;;;;;5080080;28;20211;-58
2023/07/03 11:34:34;;;;;;;0.10;0.10;;;13.70;55.10;;;;;;5080627;28;20194;-52
2023/07/03 11:37:25;;;;;;;0.10;0.10;;;13.80;55.10;;;;;;5079730;28;20210;-54
2023/07/03 11:39:55;;;;;;;0.15;0.15;;;13.70;55.10;;;;;;5081011;28;20194;-55
2023/07/03 11:42:27;;;;;;;0.10;0.10;;;13.70;55.10;;;;;;5080868;28;20211;-53
2023/07/03 11:45:01;;;;;;;0.20;0.20;;;13.70;55.70;;;;;;5082779;28;20256;-54
2023/07/03 11:47:35;;;;;;;0.10;0.10;;;13.70;55.10;;;;;;5074454;28;20194;-50
2023/07/03 11:50:08;;;;;;;0.10;0.10;;;13.70;55.10;;;;;;5077478;28;20661;-52
2023/07/03 11:52:40;;;;;;;0.20;0.20;;;13.70;55.10;;;;;;5083627;28;20218;-55
2023/07/03 11:55:17;;;;;;;0.15;0.15;;;13.70;55.10;;;;;;5079607;28;20201;-59
2023/07/03 11:57:50;;;;;;;0.10;0.10;;;13.70;55.20;;;;;;5075228;28;20202;-56
2023/07/03 12:00:24;;;;;;;0.03;0.03;;;13.70;55.20;;;;;;5075182;28;20246;-58
2023/07/03 12:03:05;;;;;;;0.10;0.10;;;13.70;55.20;;;;;;5075116;28;20690;-63
2023/07/03 12:05:54;;;;;;;0.10;0.10;;;13.70;55.20;;;;;;5074838;28;20564;-55
2023/07/03 12:08:47;;;;;;;0.10;0.10;;;13.60;55.20;;;;;;5075306;28;20199;-51
2023/07/03 12:11:20;;;;;;;0.10;0.10;;;13.70;55.20;;;;;;5095200;28;20202;-55
2023/07/03 12:13:58;;;;;;;0.20;0.20;;;13.60;55.10;;;;;;5080801;28;20399;-61
2023/07/03 12:16:31;;;;;;;0.20;0.20;;;13.60;55.10;;;;;;5074811;28;20199;-54
2023/07/03 12:19:09;;;;;;;0.10;0.10;;;13.60;55.10;;;;;;5074663;28;20195;-54
2023/07/03 12:21:46;;;;;;;0.10;0.10;;;13.60;55.20;;;;;;5073770;28;20227;-50
2023/07/03 12:24:28;;;;;;;0.10;0.10;;;13.60;55.20;;;;;;5073443;28;20222;-57
2023/07/03 12:27:04;;;;;;;0.10;0.10;;;13.60;55.20;;;;;;5074228;28;20609;-59
2023/07/03 12:29:38;;;;;;;0.20;0.20;;;13.60;55.20;;;;;;5074049;28;20655;-61
2023/07/03 12:32:10;;;;;;;0.10;0.10;;;13.50;55.10;;;;;;5074421;28;20269;-51
2023/07/03 12:34:43;;;;;;;0.10;0.10;;;13.50;55.10;;;;;;5074166;28;20198;-53
2023/07/03 12:37:24;;;;;;;0.10;0.10;;;13.50;55.10;;;;;;5074094;28;20191;-58
2023/07/03 12:39:55;;;;;;;0.10;0.10;;;13.50;55.20;;;;;;5086042;28;20190;-52
2023/07/03 12:42:28;;;;;;;0.10;0.10;;;13.50;55.20;;;;;;5091958;28;20836;-54
2023/07/03 12:45:14;;;;;;;0.10;0.10;;;13.50;55.20;;;;;;5073978;28;20247;-52
2023/07/03 12:47:45;;;;;;;0.10;0.10;;;13.50;55.20;;;;;;5074428;28;20260;-56
2023/07/03 12:50:21;;;;;;;0.10;0.10;;;13.50;55.10;;;;;;5074128;28;20540;-49
2023/07/03 12:52:59;;;;;;;0.10;0.10;;;13.50;55.10;;;;;;5073791;28;20227;-54
2023/07/03 12:55:32;;;;;;;0.10;0.10;;;13.50;55.70;;;;;;5073723;28;20209;-56
2023/07/03 12:58:03;;;;;;;0.10;0.10;;;13.50;55.10;;;;;;5073206;28;20682;-53
2023/07/03 13:00:36;;;;;;;0.10;0.10;;;13.40;55.10;;;;;;5073557;28;20202;-52
2023/07/03 13:03:09;;;;;;;0.10;0.10;;;13.40;55.10;;;;;;5073798;28;20219;-53
2023/07/03 13:05:41;;;;;;;0.10;0.10;;;13.50;55.10;;;;;;5073913;28;20191;-55
2023/07/03 13:08:17;;;;;;;0.10;0.10;;;13.40;55.10;;;;;;5073945;28;20274;-51
2023/07/03 13:11:00;;;;;;;0.10;0.10;;;13.40;55.10;;;;;;5073588;28;20281;-54
2023/07/03 13:13:31;;;;;;;0.10;0.10;;;13.40;55.10;;;;;;5078214;28;20217;-60
2023/07/03 13:16:02;;;;;;;0.20;0.20;;;13.40;55.10;;;;;;5073472;28;20344;-56
2023/07/03 13:18:32;;;;;;;0.13;0.13;;;13.30;55.10;;;;;;5073152;28;20198;-53